Time;durP1;ratioP1;P1;durP2;ratioP2;P2;SDS_P1;SDS_P2;PMS_P1;PMS_P2;Temp;Humidity;BMP_temperature;BMP_pressure;BME280_temperature;BME280_humidity;BME280_pressure;Samples;Min_cycle;Max_cycle;Signal;HPM_P1;HPM_P2
2022/04/16 00:03:14;;;;;;;61.83;24.97;;;;;;;3.32;100.00;97666.75;10253326;28;20235;-59
2022/04/16 00:08:15;;;;;;;56.53;25.07;;;;;;;3.38;100.00;97661.22;10285335;28;20222;-58
2022/04/16 00:13:16;;;;;;;47.87;23.63;;;;;;;3.41;100.00;97661.03;10289534;28;20187;-57
2022/04/16 00:18:17;;;;;;;49.90;24.60;;;;;;;3.42;100.00;97652.34;10289051;28;20234;-59
2022/04/16 00:23:19;;;;;;;49.80;23.60;;;;;;;3.44;100.00;97650.50;10288715;28;20190;-57
2022/04/16 00:28:19;;;;;;;52.83;23.30;;;;;;;3.28;100.00;97660.91;10288823;28;20226;-59
2022/04/16 00:33:20;;;;;;;49.80;22.30;;;;;;;3.17;100.00;97648.56;10289286;28;20302;-61
2022/04/16 00:38:21;;;;;;;45.70;20.33;;;;;;;3.21;100.00;97647.47;10288700;28;20230;-60
2022/04/16 00:43:22;;;;;;;49.33;20.53;;;;;;;3.22;100.00;97649.13;10288443;28;20198;-61
2022/04/16 00:48:23;;;;;;;49.97;23.63;;;;;;;3.18;100.00;97652.81;10288693;28;20213;-61
2022/04/16 00:53:29;;;;;;;51.63;23.90;;;;;;;3.12;100.00;97647.97;10288139;28;20193;-61
2022/04/16 00:58:30;;;;;;;46.03;21.67;;;;;;;3.01;100.00;97648.59;10287591;28;20250;-59
2022/04/16 01:03:30;;;;;;;41.73;21.20;;;;;;;3.04;100.00;97657.94;10287790;28;20285;-61
2022/04/16 01:08:31;;;;;;;43.63;21.27;;;;;;;2.94;100.00;97657.63;10286809;28;20241;-61
2022/04/16 01:13:31;;;;;;;41.17;22.50;;;;;;;2.94;100.00;97672.31;10287246;28;20206;-59
2022/04/16 01:18:32;;;;;;;42.67;24.90;;;;;;;2.94;100.00;97665.41;10285270;28;20586;-60
2022/04/16 01:23:32;;;;;;;47.40;23.43;;;;;;;2.81;100.00;97673.00;10285515;28;20282;-59
2022/04/16 01:28:33;;;;;;;53.53;25.03;;;;;;;2.68;100.00;97683.19;10284943;28;20723;-58
2022/04/16 01:33:33;;;;;;;39.50;21.57;;;;;;;2.75;100.00;97691.44;10285061;28;20201;-61
2022/04/16 01:38:34;;;;;;;37.33;20.03;;;;;;;2.59;100.00;97700.94;10281187;28;20317;-59
2022/04/16 01:43:34;;;;;;;28.30;15.60;;;;;;;2.45;100.00;97701.69;10283026;28;20257;-60
2022/04/16 01:48:35;;;;;;;25.37;14.03;;;;;;;2.45;100.00;97706.84;10284839;28;20214;-58
2022/04/16 01:53:35;;;;;;;23.67;14.03;;;;;;;2.44;100.00;97712.97;10284625;28;20756;-59
2022/04/16 01:58:38;;;;;;;27.27;14.20;;;;;;;2.32;100.00;97706.69;10284755;28;20654;-58
2022/04/16 02:03:38;;;;;;;19.77;13.97;;;;;;;2.32;100.00;97702.31;10284152;28;20195;-60
2022/04/16 02:08:39;;;;;;;22.87;13.13;;;;;;;2.31;100.00;97705.00;10284233;28;20659;-58
2022/04/16 02:13:39;;;;;;;30.73;14.20;;;;;;;2.32;100.00;97706.69;10283520;28;20201;-60
2022/04/16 02:18:40;;;;;;;21.47;13.50;;;;;;;2.17;100.00;97704.88;10395929;22;996542;-62
2022/04/16 02:23:41;;;;;;;21.67;12.40;;;;;;;2.05;100.00;97702.03;10452031;28;20214;-61
2022/04/16 02:28:41;;;;;;;18.27;11.50;;;;;;;2.00;100.00;97711.75;10451176;28;20636;-60
2022/04/16 02:33:41;;;;;;;14.83;11.73;;;;;;;1.99;100.00;97707.53;10451774;28;20614;-61
2022/04/16 02:38:42;;;;;;;15.33;10.83;;;;;;;2.04;100.00;97710.69;10450889;28;20572;-60
2022/04/16 02:43:42;;;;;;;19.03;11.13;;;;;;;2.01;100.00;97713.44;10453881;28;20192;-59
2022/04/16 02:48:42;;;;;;;18.10;10.60;;;;;;;2.03;100.00;97718.53;10459334;28;20222;-59
2022/04/16 02:53:43;;;;;;;16.77;10.60;;;;;;;1.87;100.00;97721.88;10458944;28;20192;-58
2022/04/16 02:58:44;;;;;;;12.80;9.07;;;;;;;1.75;100.00;97727.69;10458995;28;20457;-58
2022/04/16 03:03:44;;;;;;;11.07;6.90;;;;;;;1.68;100.00;97731.47;10473112;28;20205;-59
2022/04/16 03:08:44;;;;;;;9.63;6.10;;;;;;;1.48;100.00;97745.34;10489325;28;20684;-55
2022/04/16 03:13:45;;;;;;;9.33;5.47;;;;;;;1.44;100.00;97739.50;10457950;28;20260;-58
2022/04/16 03:18:46;;;;;;;8.20;5.07;;;;;;;1.11;100.00;97747.13;10456034;28;20231;-57
2022/04/16 03:23:47;;;;;;;11.47;5.33;;;;;;;1.16;100.00;97751.13;10457715;28;20598;-59
2022/04/16 03:28:47;;;;;;;7.73;5.03;;;;;;;1.14;100.00;97752.97;10456870;28;20784;-57
2022/04/16 03:33:47;;;;;;;8.87;4.60;;;;;;;1.16;100.00;97751.13;10457606;28;20198;-59
2022/04/16 03:38:48;;;;;;;8.03;5.80;;;;;;;1.14;100.00;97765.03;10456574;28;20235;-58
2022/04/16 03:43:48;;;;;;;8.43;4.53;;;;;;;1.14;100.00;97770.19;10457082;28;20222;-60
2022/04/16 03:48:48;;;;;;;7.97;5.13;;;;;;;1.04;100.00;97774.94;10456741;28;20250;-58
2022/04/16 03:53:49;;;;;;;9.00;4.37;;;;;;;0.96;100.00;97774.47;10455843;28;20199;-57
2022/04/16 04:04:10;;;;;;;7.53;4.80;;;;;;;1.09;100.00;97787.63;10456402;28;20206;-58
2022/04/16 04:09:11;;;;;;;6.60;4.17;;;;;;;1.01;100.00;97778.50;10456339;28;20202;-59
2022/04/16 04:14:11;;;;;;;7.53;4.73;;;;;;;1.02;100.00;97784.50;10456135;28;20191;-57
2022/04/16 04:19:11;;;;;;;9.23;4.10;;;;;;;0.91;100.00;97784.16;10455543;28;20347;-58
2022/04/16 04:24:12;;;;;;;5.80;4.10;;;;;;;0.93;100.00;97790.91;10456114;28;20194;-56
2022/04/16 04:29:12;;;;;;;8.83;4.00;;;;;;;0.88;100.00;97798.84;10455249;28;20308;-57
2022/04/16 04:34:12;;;;;;;5.60;4.00;;;;;;;0.70;100.00;97805.69;10455616;28;20202;-58
2022/04/16 04:39:13;;;;;;;6.70;4.20;;;;;;;0.59;100.00;97822.53;10455338;28;20232;-56
2022/04/16 04:44:14;;;;;;;10.60;4.90;;;;;;;0.43;100.00;97823.19;10454903;28;20197;-58
2022/04/16 04:49:14;;;;;;;10.03;4.07;;;;;;;0.58;100.00;97837.16;10455105;28;20338;-59
2022/04/16 04:54:15;;;;;;;6.23;4.20;;;;;;;0.41;100.00;97837.88;10454410;28;20736;-58
2022/04/16 04:59:15;;;;;;;7.00;4.47;;;;;;;0.55;100.00;97850.16;10454657;28;20226;-56
2022/04/16 05:04:16;;;;;;;7.10;4.67;;;;;;;0.52;100.00;97863.19;10454149;28;20207;-60
2022/04/16 05:09:16;;;;;;;5.67;4.23;;;;;;;0.52;100.00;97874.38;10453503;28;20277;-56
2022/04/16 05:14:16;;;;;;;11.00;5.10;;;;;;;0.58;100.00;97873.25;10454024;28;20297;-55
2022/04/16 05:19:17;;;;;;;6.87;5.27;;;;;;;0.46;100.00;97882.34;10454517;28;20293;-55
2022/04/16 05:24:17;;;;;;;8.83;6.90;;;;;;;0.37;100.00;97895.63;10467530;28;20187;-55
2022/04/16 05:29:18;;;;;;;14.33;7.80;;;;;;;0.40;100.00;97895.50;10495979;28;20210;-55
2022/04/16 05:34:18;;;;;;;15.10;8.27;;;;;;;0.40;100.00;97904.97;10495798;28;20197;-55
2022/04/16 05:39:19;;;;;;;16.57;8.93;;;;;;;0.37;100.00;97913.69;10493573;28;20592;-55
2022/04/16 05:44:19;;;;;;;13.50;9.97;;;;;;;0.24;100.00;97921.06;10474718;28;20621;-58
2022/04/16 05:49:19;;;;;;;16.97;9.20;;;;;;;0.26;100.00;97918.41;10474231;28;20209;-60
2022/04/16 05:54:20;;;;;;;12.13;9.40;;;;;;;0.41;100.00;97924.69;10476523;28;20265;-60
2022/04/16 05:59:22;;;;;;;13.17;9.80;;;;;;;0.21;100.00;97926.34;10493930;28;20219;-60
2022/04/16 06:04:23;;;;;;;11.70;9.47;;;;;;;0.26;100.00;97931.31;10493940;28;20195;-60
2022/04/16 06:09:23;;;;;;;20.87;11.13;;;;;;;0.20;100.00;97928.97;10493656;28;20211;-60
2022/04/16 06:14:23;;;;;;;14.53;9.40;;;;;;;0.27;100.00;97941.53;10493089;28;20283;-59
2022/04/16 06:19:24;;;;;;;16.97;8.90;;;;;;;0.19;100.00;97947.94;10478339;28;20224;-59
2022/04/16 06:24:24;;;;;;;11.63;8.07;;;;;;;0.20;100.00;97934.97;10460673;28;20201;-58
2022/04/16 06:29:25;;;;;;;11.27;8.20;;;;;;;0.31;100.00;97944.84;10494878;28;20211;-60
2022/04/16 06:34:27;;;;;;;10.03;7.20;;;;;;;0.29;100.00;97955.22;10480640;28;20202;-56
2022/04/16 06:39:27;;;;;;;11.67;6.70;;;;;;;0.42;100.00;97965.88;10496730;28;20216;-59
2022/04/16 06:44:27;;;;;;;10.37;7.27;;;;;;;0.29;100.00;97968.13;10498764;28;20678;-60
2022/04/16 06:49:29;;;;;;;7.17;5.67;;;;;;;0.23;100.00;97976.09;10482889;28;20681;-58
2022/04/16 06:54:29;;;;;;;7.37;5.93;;;;;;;0.33;100.00;97990.25;10499312;28;20193;-60
2022/04/16 06:59:29;;;;;;;7.10;5.17;;;;;;;0.13;100.00;97980.75;10490931;28;20233;-59
2022/04/16 07:04:30;;;;;;;8.37;5.77;;;;;;;0.07;100.00;97993.03;10495658;28;20266;-58
2022/04/16 07:09:30;;;;;;;8.23;5.40;;;;;;;0.30;100.00;98000.69;10496339;28;20224;-61
2022/04/16 07:14:30;;;;;;;10.03;5.17;;;;;;;0.51;100.00;97993.03;10493695;28;20546;-58
2022/04/16 07:19:32;;;;;;;8.17;5.40;;;;;;;0.69;100.00;97999.19;10497386;28;20243;-60
2022/04/16 07:24:32;;;;;;;7.40;5.50;;;;;;;0.99;100.00;98006.53;10496995;28;20561;-56
2022/04/16 07:29:33;;;;;;;6.90;4.87;;;;;;;1.28;100.00;97991.53;10487460;28;20299;-58
2022/04/16 07:34:33;;;;;;;7.83;5.17;;;;;;;1.49;100.00;97985.44;10464000;28;20287;-59
2022/04/16 07:39:33;;;;;;;4.97;4.10;;;;;;;1.61;100.00;97989.22;10455782;28;20235;-58
2022/04/16 07:44:35;;;;;;;5.97;4.40;;;;;;;1.57;100.00;97998.81;10455890;28;20558;-58
2022/04/16 07:49:35;;;;;;;5.67;3.90;;;;;;;1.76;100.00;97996.25;10480036;28;20572;-58
2022/04/16 07:54:37;;;;;;;5.87;4.00;;;;;;;1.97;100.00;97991.00;10490595;28;20187;-58
2022/04/16 07:59:37;;;;;;;5.43;3.80;;;;;;;2.03;100.00;98005.41;10493811;28;20298;-58
2022/04/16 08:04:37;;;;;;;5.20;3.60;;;;;;;2.37;100.00;97993.47;10494214;28;20272;-58
2022/04/16 08:09:38;;;;;;;5.63;3.40;;;;;;;2.27;100.00;97999.06;10479030;28;20207;-58
2022/04/16 08:14:38;;;;;;;8.43;3.67;;;;;;;2.37;100.00;98027.91;10479722;28;20202;-59
2022/04/16 08:19:38;;;;;;;5.80;3.80;;;;;;;2.76;100.00;98015.72;10510209;22;20242;-56
2022/04/16 08:24:41;;;;;;;3.57;2.80;;;;;;;3.69;97.27;97986.78;10483543;28;20199;-59
2022/04/16 08:29:41;;;;;;;4.43;2.80;;;;;;;4.39;88.86;97933.72;10478086;28;20238;-58
2022/04/16 08:34:41;;;;;;;3.60;2.70;;;;;;;4.39;86.73;97944.09;10487439;28;20278;-56
2022/04/16 08:39:42;;;;;;;3.67;3.10;;;;;;;3.57;86.73;97961.53;10488166;28;20226;-54
2022/04/16 08:44:42;;;;;;;6.67;3.93;;;;;;;4.03;89.75;97995.34;10483281;28;20243;-56
2022/04/16 08:49:44;;;;;;;5.67;2.87;;;;;;;3.70;93.70;98027.31;10466675;28;20290;-58
2022/04/16 08:54:44;;;;;;;3.83;2.67;;;;;;;4.04;91.59;97996.16;10489811;28;20278;-53
2022/04/16 08:59:48;;;;;;;4.50;2.77;;;;;;;4.46;89.24;97971.38;10490561;28;20301;-59
2022/04/16 09:05:01;;;;;;;4.53;2.87;;;;;;;5.02;89.36;97994.13;10489114;28;20202;-59
2022/04/16 09:10:08;;;;;;;4.87;2.40;;;;;;;5.12;83.57;97935.53;10489740;28;20224;-56
2022/04/16 09:15:11;;;;;;;3.83;2.10;;;;;;;5.55;80.62;97925.13;10490113;28;20221;-60
2022/04/16 09:20:12;;;;;;;2.20;2.00;;;;;;;4.95;82.09;97950.34;10488536;28;20227;-60
2022/04/16 09:25:15;;;;;;;5.33;2.10;;;;;;;5.86;80.92;97944.00;10488154;28;20194;-61
2022/04/16 09:30:30;;;;;;;2.53;1.80;;;;;;;6.25;78.96;97919.00;10488536;28;20582;-57
2022/04/16 09:35:35;;;;;;;3.20;2.03;;;;;;;5.96;75.14;97876.66;10470419;28;20179;-60
2022/04/16 09:40:36;;;;;;;1.83;1.70;;;;;;;6.92;73.32;97855.56;10488718;28;20288;-61
2022/04/16 09:45:41;;;;;;;3.43;2.03;;;;;;;6.75;74.61;97890.56;10489736;28;20194;-56
2022/04/16 09:50:44;;;;;;;3.60;2.37;;;;;;;6.13;76.88;97949.25;10488851;28;20207;-60
2022/04/16 09:55:44;;;;;;;6.07;2.57;;;;;;;5.52;77.79;97951.28;10487283;28;20195;-60
2022/04/16 10:00:45;;;;;;;5.73;2.27;;;;;;;6.90;77.60;97959.84;10487864;28;20226;-60
2022/04/16 10:05:46;;;;;;;4.10;2.40;;;;;;;7.84;68.40;97791.69;10470221;28;20255;-62
2022/04/16 10:10:54;;;;;;;5.07;2.37;;;;;;;7.29;72.14;97874.69;10488518;28;20553;-61
2022/04/16 10:15:57;;;;;;;5.60;2.60;;;;;;;7.27;74.94;97931.31;10487458;28;20199;-62
2022/04/16 10:21:00;;;;;;;5.27;2.40;;;;;;;8.57;66.93;97805.44;10486993;28;20234;-62
2022/04/16 10:26:05;;;;;;;3.83;1.60;;;;;;;8.29;68.62;97845.00;10489616;28;20187;-63
2022/04/16 10:31:07;;;;;;;1.83;1.30;;;;;;;8.99;64.25;97773.50;10489734;28;20241;-61
2022/04/16 10:36:10;;;;;;;1.53;1.30;;;;;;;8.50;65.67;97804.25;10470748;28;20286;-59
2022/04/16 10:41:12;;;;;;;4.00;1.70;;;;;;;8.67;64.79;97808.19;10489112;28;20290;-57
2022/04/16 10:46:13;;;;;;;3.37;1.70;;;;;;;8.31;66.30;97840.47;10489361;28;20565;-59
2022/04/16 10:51:17;;;;;;;5.80;2.13;;;;;;;8.57;66.61;97846.38;10490826;28;20220;-60
2022/04/16 10:56:21;;;;;;;3.83;1.93;;;;;;;9.39;65.17;97833.09;10474295;28;20200;-61
2022/04/16 11:01:25;;;;;;;3.40;1.80;;;;;;;10.06;61.91;97786.75;10492312;28;20195;-62
2022/04/16 11:06:34;;;;;;;2.87;1.40;;;;;;;10.56;58.86;97746.81;10496412;28;20554;-58
2022/04/16 11:11:38;;;;;;;2.70;1.40;;;;;;;10.00;60.56;97775.00;10496621;28;20673;-57
2022/04/16 11:16:44;;;;;;;2.03;1.50;;;;;;;11.03;58.48;97765.50;10499313;28;20267;-59
2022/04/16 11:21:44;;;;;;;2.25;1.40;;;;;;;11.69;57.44;97760.66;10498611;28;20282;-63
2022/04/16 11:37:23;;;;;;;2.17;1.23;;;;;;;11.59;53.57;97689.75;10495500;28;20314;-61
2022/04/16 11:42:25;;;;;;;2.33;1.48;;;;;;;12.94;52.66;97702.69;10498631;28;20286;-60
2022/04/16 11:47:27;;;;;;;2.20;1.58;;;;;;;10.28;55.48;97715.06;10497181;28;20220;-61
2022/04/16 11:52:30;;;;;;;5.00;2.00;;;;;;;11.18;56.90;97776.44;10498539;28;20287;-61
2022/04/16 11:57:31;;;;;;;1.60;1.50;;;;;;;11.30;56.10;97777.19;10497159;28;20242;-63
2022/04/16 12:02:33;;;;;;;3.80;1.75;;;;;;;11.35;53.04;97674.47;10495174;28;20195;-62
2022/04/16 12:07:33;;;;;;;3.00;1.45;;;;;;;12.89;52.00;97698.84;10495112;28;20208;-61
2022/04/16 12:13:06;;;;;;;2.35;1.40;;;;;;;14.07;49.94;97686.47;10494633;28;20618;-63
2022/04/16 12:18:18;;;;;;;2.70;1.20;;;;;;;14.53;47.95;97663.34;10490575;28;20234;-62
2022/04/16 12:23:20;;;;;;;1.75;1.10;;;;;;;13.42;49.31;97669.19;10494856;28;20812;-58
2022/04/16 12:28:21;;;;;;;2.15;1.10;;;;;;;13.33;47.18;97620.03;10496404;28;20204;-57
2022/04/16 12:33:25;;;;;;;2.55;1.92;;;;;;;12.84;49.45;97689.59;10492559;28;20850;-61
2022/04/16 12:38:26;;;;;;;1.30;1.20;;;;;;;14.44;46.97;97638.75;10493443;28;20705;-62
2022/04/16 12:43:26;;;;;;;1.70;1.30;;;;;;;13.44;48.53;97672.47;10495648;28;20222;-62
2022/04/16 12:48:27;;;;;;;2.60;1.42;;;;;;;13.80;47.29;97643.50;10495576;28;20211;-58
2022/04/16 12:53:27;;;;;;;2.10;1.65;;;;;;;14.50;45.14;97618.00;10495720;28;20194;-59
2022/04/16 12:58:28;;;;;;;4.18;1.63;;;;;;;11.16;49.31;97651.66;10495348;28;20226;-58
2022/04/16 13:03:28;;;;;;;2.13;1.30;;;;;;;12.83;49.38;97690.59;10495656;28;20211;-58
2022/04/16 13:08:30;;;;;;;2.42;1.30;;;;;;;13.54;47.32;97644.28;10495249;28;20203;-63
2022/04/16 13:13:30;;;;;;;3.25;1.20;;;;;;;12.95;48.66;97680.66;10494848;28;20183;-60
2022/04/16 13:18:30;;;;;;;7.57;5.50;;;;;;;14.01;46.14;97619.44;10493847;28;20227;-62
2022/04/16 13:23:31;;;;;;;2.05;1.60;;;;;;;13.86;47.07;97653.41;10494015;28;20646;-62
2022/04/16 13:28:32;;;;;;;2.40;1.77;;;;;;;13.73;47.56;97666.13;10493561;28;20274;-61
2022/04/16 13:33:32;;;;;;;2.10;1.40;;;;;;;14.44;43.79;97561.44;10493645;28;20285;-60
2022/04/16 13:38:33;;;;;;;4.65;2.28;;;;;;;15.51;44.88;97623.19;10492920;28;20211;-60
2022/04/16 13:43:33;;;;;;;2.72;1.48;;;;;;;13.58;45.49;97588.69;10493395;28;20278;-63
2022/04/16 13:48:33;;;;;;;1.83;1.30;;;;;;;13.64;44.87;97567.00;10484326;28;20258;-57
2022/04/16 13:53:34;;;;;;;2.75;1.92;;;;;;;15.34;41.86;97545.78;10452469;28;20277;-61
2022/04/16 13:58:34;;;;;;;1.55;1.15;;;;;;;15.83;41.05;97513.22;10451502;28;20232;-57
2022/04/16 14:03:36;;;;;;;5.45;3.90;;;;;;;14.13;43.70;97555.91;10451881;28;20241;-62
2022/04/16 14:08:36;;;;;;;2.28;1.48;;;;;;;14.68;41.82;97515.91;10450043;28;20231;-61
2022/04/16 14:13:37;;;;;;;6.25;4.35;;;;;;;14.58;44.89;97618.88;10447489;28;20746;-58
2022/04/16 14:18:38;;;;;;;2.50;2.30;;;;;;;15.40;41.80;97536.38;10451749;28;20231;-61
2022/04/16 14:23:40;;;;;;;2.17;1.13;;;;;;;17.11;39.02;97506.72;10451000;28;20195;-61
2022/04/16 14:28:41;;;;;;;1.58;1.40;;;;;;;15.43;42.32;97566.91;10451711;28;20269;-62
2022/04/16 14:33:43;;;;;;;4.53;1.60;;;;;;;15.13;41.44;97519.06;10451676;28;20962;-61
2022/04/16 14:38:44;;;;;;;2.63;1.42;;;;;;;11.64;46.80;97569.47;10452036;28;20590;-61
2022/04/16 14:43:48;;;;;;;2.35;1.60;;;;;;;13.87;45.39;97636.63;10459344;28;20204;-62
2022/04/16 14:48:53;;;;;;;2.33;1.77;;;;;;;16.49;39.92;97528.81;10441276;28;20212;-62
2022/04/16 14:53:53;;;;;;;1.70;1.30;;;;;;;17.61;38.98;97532.75;10459546;28;20192;-62
2022/04/16 14:58:55;;;;;;;1.45;1.13;;;;;;;15.86;40.85;97539.31;10459033;28;20220;-61
2022/04/16 15:03:56;;;;;;;3.75;3.00;;;;;;;15.94;40.26;97529.69;10458562;28;20286;-61
2022/04/16 15:08:56;;;;;;;4.80;1.73;;;;;;;16.43;40.72;97550.63;10458851;28;20612;-61
2022/04/16 15:13:56;;;;;;;1.77;1.23;;;;;;;18.40;36.51;97478.34;10457815;28;20200;-62
2022/04/16 15:18:57;;;;;;;3.47;1.40;;;;;;;17.75;36.73;97462.22;10458058;28;20232;-62
2022/04/16 15:23:57;;;;;;;2.25;1.60;;;;;;;17.55;36.91;97464.59;10457618;28;20191;-62
2022/04/16 15:28:58;;;;;;;4.80;2.55;;;;;;;20.47;33.63;97435.41;10457813;28;20215;-58
2022/04/16 15:34:01;;;;;;;3.30;1.33;;;;;;;20.38;33.12;97417.13;10457977;28;20199;-58
2022/04/16 15:39:03;;;;;;;2.05;1.30;;;;;;;18.64;35.42;97440.81;10456966;28;20215;-62
2022/04/16 15:44:05;;;;;;;4.10;1.05;;;;;;;17.00;35.70;97389.84;10457622;28;20192;-62
2022/04/16 15:49:05;;;;;;;2.67;1.50;;;;;;;17.44;34.41;97354.59;10456788;28;20200;-62
2022/04/16 15:54:05;;;;;;;2.50;1.20;;;;;;;19.09;33.08;97382.19;10456929;28;20203;-62
2022/04/16 15:59:06;;;;;;;1.85;1.10;;;;;;;18.54;34.80;97430.53;10456784;28;20327;-62
2022/04/16 16:04:54;;;;;;;2.25;1.65;;;;;;;17.18;36.39;97447.75;10456426;28;20575;-62
2022/04/16 16:09:26;;;;;;;1.63;1.10;;;;;;;18.05;35.03;97423.25;10456410;28;20211;-62
2022/04/16 16:14:27;;;;;;;1.67;1.00;;;;;;;17.89;36.04;97460.63;10456205;28;20200;-62
2022/04/16 16:19:28;;;;;;;1.83;1.38;;;;;;;17.16;36.50;97444.47;10452469;28;20236;-62
2022/04/16 16:24:28;;;;;;;5.18;1.38;;;;;;;15.73;38.79;97477.38;10454937;28;20196;-62
2022/04/16 16:29:29;;;;;;;1.52;1.10;;;;;;;16.53;38.14;97508.91;10455618;28;20230;-62
2022/04/16 16:34:29;;;;;;;2.40;1.52;;;;;;;15.69;38.31;97468.97;10454851;28;20198;-61
2022/04/16 16:39:30;;;;;;;5.05;1.85;;;;;;;14.70;39.40;97473.53;10451352;28;20228;-61
2022/04/16 16:44:31;;;;;;;1.58;1.30;;;;;;;12.84;42.46;97499.44;10454757;28;20245;-60
2022/04/16 16:49:31;;;;;;;2.15;1.35;;;;;;;11.45;44.95;97517.84;10454835;28;20704;-60
2022/04/16 16:54:31;;;;;;;4.72;1.25;;;;;;;10.72;46.95;97573.38;10454362;28;20231;-60
2022/04/16 16:59:32;;;;;;;13.07;7.18;;;;;;;10.83;46.99;97588.16;10454292;28;20663;-58
2022/04/16 17:09:53;;;;;;;3.40;2.70;;;;;;;9.62;49.46;97626.38;10454141;28;20269;-61
2022/04/16 17:20:13;;;;;;;12.57;6.40;;;;;;;8.65;52.72;97699.53;10453193;28;20318;-60
2022/04/16 17:25:14;;;;;;;6.33;2.00;;;;;;;8.38;53.23;97716.38;10452807;28;20745;-58
2022/04/16 17:30:14;;;;;;;5.87;1.53;;;;;;;8.18;55.14;97767.47;10453201;28;20207;-60
2022/04/16 17:35:16;;;;;;;2.30;2.00;;;;;;;7.96;57.16;97800.41;10452952;28;20194;-60
2022/04/16 17:40:17;;;;;;;1.77;1.27;;;;;;;7.67;57.79;97800.75;10452638;28;20228;-59
2022/04/16 17:45:17;;;;;;;4.60;1.63;;;;;;;7.32;57.61;97801.50;10452332;28;20187;-60
2022/04/16 17:50:18;;;;;;;1.63;1.47;;;;;;;7.03;59.80;97845.25;10452281;28;20561;-57
2022/04/16 17:55:18;;;;;;;3.33;1.80;;;;;;;6.78;60.67;97875.56;10451639;28;20218;-58
2022/04/16 18:00:19;;;;;;;1.83;1.60;;;;;;;6.50;62.03;97893.97;10451580;28;20281;-57
2022/04/16 18:05:19;;;;;;;6.43;2.90;;;;;;;6.13;62.88;97920.63;10451710;28;20195;-58
2022/04/16 18:10:20;;;;;;;3.97;2.50;;;;;;;5.90;65.21;97967.09;10451782;28;20204;-60
2022/04/16 18:15:20;;;;;;;4.37;3.13;;;;;;;5.55;68.16;98000.50;10450109;28;20199;-59
2022/04/16 18:20:21;;;;;;;3.57;2.70;;;;;;;4.87;70.12;98020.06;10450666;28;20231;-55
2022/04/16 18:25:22;;;;;;;4.33;2.00;;;;;;;4.25;72.54;98046.84;10449916;28;20542;-58
2022/04/16 18:30:22;;;;;;;5.20;2.63;;;;;;;3.98;74.67;98053.53;10431112;28;20204;-58
2022/04/16 18:35:23;;;;;;;8.67;3.10;;;;;;;3.03;79.22;98076.50;10450361;28;20721;-59
2022/04/16 18:40:24;;;;;;;6.77;2.23;;;;;;;3.17;81.04;98070.63;10432809;28;20278;-52
2022/04/16 18:45:24;;;;;;;3.37;2.40;;;;;;;2.73;84.78;98063.28;10450573;28;20180;-55
2022/04/16 18:50:24;;;;;;;6.97;2.60;;;;;;;2.61;86.92;98050.94;10450436;28;20211;-55
2022/04/16 18:55:25;;;;;;;3.33;2.70;;;;;;;2.44;89.90;98052.56;10450332;28;20188;-55
2022/04/16 19:11:03;;;;;;;4.43;2.90;;;;;;;1.92;100.00;98061.00;10447377;28;20294;-57
2022/04/16 19:16:04;;;;;;;6.03;3.27;;;;;;;1.81;100.00;98059.78;10450267;28;20299;-59
2022/04/16 19:21:04;;;;;;;4.77;3.20;;;;;;;1.61;100.00;98051.19;10449425;28;20243;-59
2022/04/16 19:26:05;;;;;;;8.97;3.20;;;;;;;1.42;100.00;98054.59;10452354;28;20244;-55
2022/04/16 19:31:05;;;;;;;6.63;3.13;;;;;;;1.32;100.00;98057.63;10464554;28;20321;-57
2022/04/16 19:36:05;;;;;;;8.40;3.20;;;;;;;1.15;100.00;98061.75;10497446;28;20210;-52
2022/04/16 19:41:07;;;;;;;7.00;3.00;;;;;;;0.97;100.00;98071.09;10497595;28;20221;-57
2022/04/16 19:46:08;;;;;;;7.70;3.27;;;;;;;0.90;100.00;98064.50;10497840;28;20199;-59
2022/04/16 19:51:08;;;;;;;5.67;3.83;;;;;;;0.64;100.00;98065.56;10497781;28;20292;-56
2022/04/16 19:56:08;;;;;;;7.17;4.03;;;;;;;0.61;100.00;98063.94;10497521;28;20209;-57
2022/04/16 20:01:09;;;;;;;8.57;3.83;;;;;;;0.60;100.00;98058.84;10497311;28;20254;-57
2022/04/16 20:06:09;;;;;;;6.77;4.20;;;;;;;0.47;100.00;98066.22;10497062;28;20201;-58
2022/04/16 20:11:09;;;;;;;6.07;3.77;;;;;;;0.37;100.00;98064.91;10497168;28;20191;-58
2022/04/16 20:16:10;;;;;;;6.43;4.17;;;;;;;0.29;100.00;98065.19;10496522;28;20192;-54
2022/04/16 20:21:10;;;;;;;10.17;3.90;;;;;;;0.30;100.00;98069.47;10517687;22;20233;-61
2022/04/16 20:26:11;;;;;;;5.83;3.50;;;;;;;0.23;100.00;98068.88;10496664;28;20657;-57
2022/04/16 20:31:14;;;;;;;7.83;4.10;;;;;;;0.22;100.00;98074.06;10496480;28;20602;-57
2022/04/16 20:36:14;;;;;;;5.80;3.60;;;;;;;0.16;100.00;98065.66;10478294;28;20272;-57
2022/04/16 20:46:34;;;;;;;5.57;2.90;;;;;;;0.11;100.00;98070.16;10495985;28;20191;-58
2022/04/16 20:56:53;;;;;;;5.13;3.60;;;;;;;0.08;100.00;98059.97;10495328;28;20665;-57
2022/04/16 21:01:53;;;;;;;6.93;3.40;;;;;;;0.03;100.00;98067.03;10495232;28;20219;-58
2022/04/16 21:06:54;;;;;;;2.87;2.47;;;;;;;0.02;100.00;98054.22;10493162;28;20184;-56
2022/04/16 21:11:54;;;;;;;5.00;3.27;;;;;;;-0.09;100.00;98052.88;10493742;28;20211;-56
2022/04/16 21:16:54;;;;;;;4.47;3.30;;;;;;;-0.14;100.00;98054.75;10493513;28;20268;-56
2022/04/16 21:21:55;;;;;;;5.63;2.63;;;;;;;-0.12;100.00;98054.72;10492360;28;20309;-56
2022/04/16 21:26:56;;;;;;;6.17;2.93;;;;;;;-0.21;100.00;98054.16;10492316;28;20191;-58
2022/04/16 21:31:57;;;;;;;6.43;3.00;;;;;;;-0.26;100.00;98052.66;10492738;28;20211;-56
2022/04/16 21:36:58;;;;;;;3.50;2.53;;;;;;;-0.18;100.00;98060.94;10491018;28;20308;-55
2022/04/16 21:41:59;;;;;;;4.13;2.93;;;;;;;-0.27;100.00;98061.28;10491781;28;20211;-59
2022/04/16 21:46:59;;;;;;;4.77;3.13;;;;;;;-0.39;100.00;98060.81;10490992;28;20214;-56
2022/04/16 21:52:01;;;;;;;6.00;3.10;;;;;;;-0.48;100.00;98060.31;10490783;28;20561;-56
2022/04/16 21:57:01;;;;;;;3.80;3.40;;;;;;;-0.57;100.00;98070.06;10494046;28;20226;-59
2022/04/16 22:02:01;;;;;;;7.60;3.70;;;;;;;-0.72;100.00;98062.84;10493371;28;20733;-58
2022/04/16 22:07:02;;;;;;;3.83;2.53;;;;;;;-0.67;100.00;98065.25;10493664;28;20180;-57
2022/04/16 22:12:02;;;;;;;4.97;3.03;;;;;;;-0.65;100.00;98064.31;10493521;28;20297;-54
2022/04/16 22:17:03;;;;;;;4.43;3.27;;;;;;;-0.60;100.00;98067.59;10492962;28;20219;-57
2022/04/16 22:22:03;;;;;;;3.67;2.20;;;;;;;-0.78;100.00;98070.75;10492949;28;20235;-56
2022/04/16 22:27:04;;;;;;;6.00;3.00;;;;;;;-0.93;100.00;98065.25;10493071;28;20586;-58
2022/04/16 22:32:07;;;;;;;6.53;3.00;;;;;;;-0.95;100.00;98067.06;10493468;28;20218;-58
2022/04/16 22:42:26;;;;;;;4.50;2.67;;;;;;;-1.03;100.00;98056.16;10492746;28;20195;-59
2022/04/16 22:47:27;;;;;;;3.27;2.93;;;;;;;-0.99;100.00;98075.75;10492784;28;20211;-58
2022/04/16 22:52:27;;;;;;;3.80;2.73;;;;;;;-0.99;100.00;98068.03;10492834;28;20223;-61
2022/04/16 22:57:27;;;;;;;3.97;2.80;;;;;;;-0.92;100.00;98063.50;10492543;28;20227;-55
2022/04/16 23:02:28;;;;;;;4.90;2.87;;;;;;;-0.98;100.00;98066.28;10497558;28;20195;-58
2022/04/16 23:07:28;;;;;;;2.20;2.00;;;;;;;-1.00;100.00;98055.22;10500197;28;20589;-56
2022/04/16 23:12:28;;;;;;;5.27;2.40;;;;;;;-1.03;100.00;98058.72;10500237;28;20643;-59
2022/04/16 23:17:29;;;;;;;6.47;3.07;;;;;;;-1.10;100.00;98063.25;10499538;28;20676;-56
2022/04/16 23:22:29;;;;;;;4.10;2.90;;;;;;;-1.14;100.00;98058.25;10499311;28;20614;-57
2022/04/16 23:27:30;;;;;;;2.80;1.57;;;;;;;-1.14;100.00;98042.84;10499247;28;20635;-55
2022/04/16 23:32:30;;;;;;;3.83;2.67;;;;;;;-1.22;100.00;98050.81;10499345;28;20267;-58
2022/04/16 23:37:30;;;;;;;5.17;3.43;;;;;;;-1.27;100.00;98044.97;10481293;28;20231;-55
2022/04/16 23:42:32;;;;;;;4.33;3.03;;;;;;;-1.28;100.00;98053.56;10498255;28;20202;-56
2022/04/16 23:47:32;;;;;;;7.83;3.13;;;;;;;-1.34;100.00;98053.78;10498817;28;20203;-57
2022/04/16 23:52:32;;;;;;;3.30;2.60;;;;;;;-1.36;100.00;98042.69;10498423;28;20227;-56
2022/04/16 23:57:33;;;;;;;4.93;3.07;;;;;;;-1.44;100.00;98038.66;10498343;28;20231;-57
